Time;durP1;ratioP1;P1;durP2;ratioP2;P2;SDS_P1;SDS_P2;PMS_P1;PMS_P2;Temp;Humidity;BMP_temperature;BMP_pressure;BME280_temperature;BME280_humidity;BME280_pressure;Samples;Min_cycle;Max_cycle;Signal;HPM_P1;HPM_P2
2022/05/08 00:02:04;;;;;;;8.48;6.53;;;;;;;13.41;87.30;100766.81;4470695;32;20125;-67
2022/05/08 00:04:32;;;;;;;9.77;6.10;;;;;;;13.28;90.19;100768.78;4470561;32;20160;-67
2022/05/08 00:06:59;;;;;;;9.15;6.35;;;;;;;13.18;91.35;100765.41;4470662;32;20088;-66
2022/05/08 00:09:26;;;;;;;10.50;6.18;;;;;;;13.13;91.55;100764.59;4470599;32;20104;-66
2022/05/08 00:11:53;;;;;;;7.40;6.43;;;;;;;13.15;91.25;100762.81;4470552;32;20435;-67
2022/05/08 00:14:20;;;;;;;8.07;6.82;;;;;;;13.10;92.29;100754.06;4470471;32;20500;-67
2022/05/08 00:16:48;;;;;;;10.32;6.57;;;;;;;13.04;92.72;100759.44;4470507;32;20123;-67
2022/05/08 00:19:16;;;;;;;8.82;6.40;;;;;;;12.98;93.09;100759.56;4470518;32;20160;-67
2022/05/08 00:21:43;;;;;;;8.52;7.00;;;;;;;12.94;93.54;100760.50;4470174;32;20147;-67
2022/05/08 00:24:10;;;;;;;8.32;6.32;;;;;;;12.95;93.51;100752.53;4470414;32;20456;-67
2022/05/08 00:26:37;;;;;;;7.47;6.45;;;;;;;12.92;93.42;100750.81;4470359;32;20088;-67
2022/05/08 00:29:05;;;;;;;8.05;6.55;;;;;;;12.91;93.72;100754.34;4470405;32;20092;-66
2022/05/08 00:31:33;;;;;;;7.28;6.57;;;;;;;12.87;94.46;100747.38;4470322;32;20451;-67
2022/05/08 00:34:00;;;;;;;8.55;6.75;;;;;;;12.84;94.49;100738.63;4470242;32;20116;-66
2022/05/08 00:36:28;;;;;;;8.88;6.62;;;;;;;12.82;95.15;100743.03;4455813;32;20449;-66
2022/05/08 00:38:55;;;;;;;8.57;6.43;;;;;;;12.80;94.94;100737.78;4470479;32;20460;-66
2022/05/08 00:41:22;;;;;;;10.77;7.20;;;;;;;12.78;94.86;100736.94;4470338;32;20164;-66
2022/05/08 00:43:49;;;;;;;7.40;6.62;;;;;;;12.77;94.20;100729.03;4470196;32;20167;-67
2022/05/08 00:46:16;;;;;;;7.35;6.65;;;;;;;12.75;94.60;100736.97;4470345;32;20538;-66
2022/05/08 00:48:47;;;;;;;8.00;6.78;;;;;;;12.76;96.04;100736.09;4470418;32;20097;-67
2022/05/08 00:51:17;;;;;;;10.25;7.00;;;;;;;12.70;94.85;100733.53;4470218;32;20510;-66
2022/05/08 00:53:50;;;;;;;9.18;6.65;;;;;;;12.71;94.99;100737.91;4470164;32;20159;-67
2022/05/08 00:56:19;;;;;;;7.78;5.93;;;;;;;12.68;95.23;100733.56;4470204;32;20440;-67
2022/05/08 00:58:50;;;;;;;9.27;6.95;;;;;;;12.62;95.84;100736.31;4469551;32;20096;-66
2022/05/08 01:01:18;;;;;;;7.18;6.32;;;;;;;12.56;96.48;100735.50;4469864;32;20130;-67
2022/05/08 01:03:46;;;;;;;12.75;6.22;;;;;;;12.50;96.80;100730.31;4470195;32;20126;-67
2022/05/08 01:06:16;;;;;;;7.90;6.50;;;;;;;12.48;96.78;100734.75;4470396;32;20895;-67
2022/05/08 01:08:46;;;;;;;8.50;6.97;;;;;;;12.50;96.24;100725.03;4470223;32;20686;-67
2022/05/08 01:11:14;;;;;;;8.80;7.20;;;;;;;12.49;98.28;100731.22;4470056;32;20107;-67
2022/05/08 01:13:42;;;;;;;8.10;6.43;;;;;;;12.46;98.13;100729.47;4470390;32;20118;-67
2022/05/08 01:16:14;;;;;;;7.28;6.18;;;;;;;12.43;98.08;100733.03;4470021;32;20138;-66
2022/05/08 01:18:46;;;;;;;10.00;6.40;;;;;;;12.49;97.19;100733.84;4470017;32;20116;-66
2022/05/08 01:21:23;;;;;;;7.97;6.57;;;;;;;12.48;96.82;100732.97;4469897;32;20518;-66
2022/05/08 01:23:50;;;;;;;11.25;6.50;;;;;;;12.46;97.57;100731.25;4470034;32;20081;-66
2022/05/08 01:26:21;;;;;;;8.38;6.60;;;;;;;12.37;96.85;100735.78;4455442;32;20584;-67
2022/05/08 01:28:48;;;;;;;7.47;6.68;;;;;;;12.33;97.20;100736.72;4470236;32;20156;-66
2022/05/08 01:31:17;;;;;;;8.50;6.15;;;;;;;12.31;96.88;100727.91;4469988;32;20159;-67
2022/05/08 01:33:44;;;;;;;7.35;6.50;;;;;;;12.35;97.57;100729.63;4469981;32;20440;-66
2022/05/08 01:36:11;;;;;;;9.15;6.87;;;;;;;12.31;98.90;100732.34;4470183;32;20097;-67
2022/05/08 01:38:39;;;;;;;9.13;6.25;;;;;;;12.31;98.56;100727.91;4469910;32;20143;-66
2022/05/08 01:41:06;;;;;;;9.85;7.35;;;;;;;12.32;98.08;100732.31;4470124;32;20088;-66
2022/05/08 01:43:36;;;;;;;10.45;6.10;;;;;;;12.27;98.15;100728.87;4469846;32;20130;-66
2022/05/08 01:46:05;;;;;;;7.03;5.93;;;;;;;12.26;97.89;100728.87;4469940;32;20549;-67
2022/05/08 01:48:34;;;;;;;8.02;6.70;;;;;;;12.23;98.59;100732.44;4469840;32;20089;-67
2022/05/08 01:51:03;;;;;;;6.37;5.78;;;;;;;12.22;98.73;100733.31;4469811;32;20527;-67
2022/05/08 01:53:33;;;;;;;6.00;5.50;;;;;;;12.14;98.36;100730.78;4470001;32;20084;-67
2022/05/08 01:56:04;;;;;;;6.15;5.62;;;;;;;12.09;97.79;100729.09;4469776;32;20080;-66
2022/05/08 01:58:32;;;;;;;6.12;5.55;;;;;;;12.11;98.02;100738.75;4469824;32;20103;-67
2022/05/08 02:01:04;;;;;;;8.25;5.50;;;;;;;12.15;98.17;100732.53;4469712;32;20122;-67
2022/05/08 02:03:33;;;;;;;6.10;5.50;;;;;;;12.16;98.70;100731.66;4470019;32;20076;-67
2022/05/08 02:06:00;;;;;;;5.87;5.30;;;;;;;12.13;98.95;100730.81;4469575;32;20147;-67
2022/05/08 02:08:27;;;;;;;5.85;5.18;;;;;;;12.12;98.04;100729.03;4469513;32;20154;-67
2022/05/08 02:10:54;;;;;;;6.20;5.60;;;;;;;12.17;98.30;100727.22;4469280;32;20112;-66
2022/05/08 02:13:22;;;;;;;5.97;5.37;;;;;;;12.18;97.67;100735.13;4469396;32;20144;-66
2022/05/08 02:15:49;;;;;;;5.65;5.15;;;;;;;12.20;97.56;100729.84;4469779;32;20123;-67
2022/05/08 02:18:16;;;;;;;5.70;5.20;;;;;;;12.19;97.12;100722.78;4469370;32;20429;-67
2022/05/08 02:20:44;;;;;;;6.95;5.20;;;;;;;12.15;97.92;100729.88;4469381;32;20479;-66
2022/05/08 02:23:11;;;;;;;6.57;5.87;;;;;;;12.22;97.76;100722.75;4469409;32;20076;-66
2022/05/08 02:25:38;;;;;;;7.97;5.37;;;;;;;12.19;97.02;100726.31;4469315;32;20516;-66
2022/05/08 02:28:06;;;;;;;7.60;5.25;;;;;;;12.16;97.65;100721.09;4469373;32;20168;-66
2022/05/08 02:30:33;;;;;;;7.30;5.40;;;;;;;12.12;98.18;100726.41;4469450;32;20550;-66
2022/05/08 02:33:00;;;;;;;6.30;5.70;;;;;;;12.10;97.86;100726.44;4469413;32;20088;-67
2022/05/08 02:35:28;;;;;;;6.93;5.60;;;;;;;12.07;98.11;100731.75;4469385;32;20179;-66
2022/05/08 02:37:56;;;;;;;9.82;6.47;;;;;;;12.18;98.79;100728.97;4469190;32;20481;-66
2022/05/08 02:40:24;;;;;;;10.50;7.62;;;;;;;12.21;97.78;100734.22;4469350;32;20532;-66
2022/05/08 02:42:53;;;;;;;8.55;6.50;;;;;;;12.15;98.47;100732.53;4454631;32;20555;-66
2022/05/08 02:45:20;;;;;;;10.18;7.75;;;;;;;12.16;97.03;100744.84;4469176;32;20136;-66
2022/05/08 02:47:48;;;;;;;8.55;6.90;;;;;;;12.19;100.00;100750.09;4469069;32;20092;-66
2022/05/08 02:50:15;;;;;;;8.55;7.47;;;;;;;12.23;99.53;100747.44;4469283;32;20176;-66
2022/05/08 02:52:43;;;;;;;8.52;7.25;;;;;;;12.31;98.36;100751.69;4469060;32;20084;-66
2022/05/08 03:00:46;;;;;;;8.13;7.20;;;;;;;12.30;97.57;100757.03;4469100;32;20366;-66
2022/05/08 03:03:14;;;;;;;11.52;8.63;;;;;;;12.26;96.46;100753.53;4468933;32;20163;-66
2022/05/08 03:05:47;;;;;;;8.27;7.57;;;;;;;12.23;97.50;100750.94;4468795;32;20151;-66
2022/05/08 03:08:17;;;;;;;9.75;8.57;;;;;;;12.11;98.07;100749.31;4468737;32;20171;-66
2022/05/08 03:13:38;;;;;;;9.70;6.97;;;;;;;12.16;96.94;100752.78;4468799;32;20500;-66
2022/05/08 03:16:07;;;;;;;8.77;7.87;;;;;;;12.07;96.27;100752.00;4468655;32;20076;-66
2022/05/08 03:18:36;;;;;;;9.50;8.30;;;;;;;12.03;96.59;100756.47;4468412;32;20085;-66
2022/05/08 03:21:03;;;;;;;10.27;8.45;;;;;;;12.05;98.06;100754.69;4468382;32;20112;-66
2022/05/08 03:23:31;;;;;;;15.43;8.10;;;;;;;12.06;97.62;100755.56;4469719;32;20175;-66
2022/05/08 03:25:59;;;;;;;12.10;8.13;;;;;;;12.07;97.46;100760.81;4470752;32;20130;-66
2022/05/08 03:28:27;;;;;;;10.07;7.30;;;;;;;12.08;97.39;100756.38;4470671;32;20115;-66
2022/05/08 03:30:54;;;;;;;8.73;7.82;;;;;;;12.19;95.24;100765.06;4470803;32;20131;-66
2022/05/08 03:33:21;;;;;;;11.32;8.13;;;;;;;12.17;94.68;100758.94;4470943;32;20559;-67
2022/05/08 03:35:48;;;;;;;8.23;7.32;;;;;;;12.19;94.44;100759.78;4470699;32;20096;-66
2022/05/08 03:38:18;;;;;;;12.23;7.60;;;;;;;12.22;94.95;100767.66;4470633;32;20168;-66
2022/05/08 03:40:45;;;;;;;9.10;8.20;;;;;;;12.28;95.36;100772.00;4470792;32;20206;-66
2022/05/08 03:43:12;;;;;;;10.07;7.85;;;;;;;12.29;94.80;100766.69;4470693;32;20134;-66
2022/05/08 03:45:39;;;;;;;9.02;8.13;;;;;;;12.32;94.21;100771.94;4470606;32;20455;-66
2022/05/08 03:48:07;;;;;;;9.70;8.20;;;;;;;12.32;94.77;100779.00;4470649;32;20120;-67
2022/05/08 03:50:35;;;;;;;11.00;8.98;;;;;;;12.31;96.13;100782.53;4471002;32;20464;-66
2022/05/08 03:53:03;;;;;;;13.60;8.45;;;;;;;12.31;96.28;100779.91;4470561;32;20093;-66
2022/05/08 03:55:31;;;;;;;11.45;8.30;;;;;;;12.21;97.29;100784.41;4455737;32;20467;-66
2022/05/08 03:57:58;;;;;;;10.02;9.02;;;;;;;12.26;96.76;100784.34;4470598;32;20532;-66
2022/05/08 04:00:25;;;;;;;9.45;7.57;;;;;;;12.33;97.33;100786.03;4455808;32;20378;-66
2022/05/08 04:02:53;;;;;;;10.18;7.32;;;;;;;12.42;96.78;100796.50;4470588;32;20403;-66
2022/05/08 04:05:20;;;;;;;10.48;7.53;;;;;;;12.50;96.24;100793.75;4470669;32;20138;-67
2022/05/08 04:07:48;;;;;;;11.65;7.05;;;;;;;12.63;96.03;100793.56;4470496;32;20127;-67
2022/05/08 04:10:15;;;;;;;8.30;7.05;;;;;;;12.74;94.67;100800.47;4470552;32;20130;-66
2022/05/08 04:12:43;;;;;;;8.23;6.95;;;;;;;12.82;95.13;100803.88;4470585;32;20499;-66
2022/05/08 04:17:59;;;;;;;11.63;7.87;;;;;;;12.84;94.89;100797.66;4470370;32;20519;-66
2022/05/08 04:20:26;;;;;;;8.73;7.82;;;;;;;12.97;94.59;100805.41;4467970;32;76123;-67
2022/05/08 04:25:39;;;;;;;13.50;6.60;;;;;;;13.12;94.08;100807.84;4470928;32;20116;-67
2022/05/08 04:28:07;;;;;;;7.43;6.60;;;;;;;13.46;92.36;100804.66;4470332;32;20465;-66
2022/05/08 04:30:34;;;;;;;8.82;6.87;;;;;;;13.59;91.81;100815.00;4470676;32;20092;-66
2022/05/08 04:33:02;;;;;;;9.02;7.07;;;;;;;13.78;90.64;100810.28;4470394;32;20163;-66
2022/05/08 04:35:30;;;;;;;8.10;6.82;;;;;;;13.86;89.77;100813.66;4470375;32;20092;-66
2022/05/08 04:37:57;;;;;;;8.80;7.07;;;;;;;14.09;87.84;100815.84;4455756;32;20156;-67
2022/05/08 04:40:24;;;;;;;14.43;7.40;;;;;;;14.30;86.99;100805.72;4470319;32;20122;-67
2022/05/08 04:42:51;;;;;;;10.57;6.65;;;;;;;14.33;85.70;100809.19;4470082;32;20156;-66
2022/05/08 04:45:18;;;;;;;10.50;6.60;;;;;;;14.49;85.75;100812.41;4470367;32;20436;-66
2022/05/08 04:47:46;;;;;;;6.68;5.97;;;;;;;14.66;84.60;100819.16;4470463;32;20456;-67
2022/05/08 04:50:13;;;;;;;7.22;6.53;;;;;;;14.75;84.79;100811.88;4470343;32;20538;-66
2022/05/08 04:52:40;;;;;;;9.13;6.20;;;;;;;14.72;85.65;100814.59;4470130;32;20508;-66
2022/05/08 04:55:08;;;;;;;6.72;6.12;;;;;;;14.83;85.48;100815.22;4470268;32;20176;-66
2022/05/08 04:57:36;;;;;;;7.40;6.62;;;;;;;14.95;84.52;100816.75;4470143;32;20100;-67
2022/05/08 05:00:03;;;;;;;7.85;6.40;;;;;;;15.14;84.29;100821.62;4470109;32;20768;-67
2022/05/08 05:02:33;;;;;;;10.52;6.50;;;;;;;15.30;82.09;100823.87;4470139;32;20147;-67
2022/05/08 05:05:01;;;;;;;7.85;6.32;;;;;;;15.46;82.26;100824.34;4469998;32;20084;-67
2022/05/08 05:07:28;;;;;;;9.63;6.37;;;;;;;15.58;81.15;100828.47;4470040;32;20092;-67
2022/05/08 05:09:55;;;;;;;7.25;5.55;;;;;;;15.75;80.02;100820.09;4470095;32;20152;-66
2022/05/08 05:12:23;;;;;;;13.52;6.22;;;;;;;15.98;79.08;100825.69;4470431;32;20110;-67
2022/05/08 05:14:51;;;;;;;10.30;6.68;;;;;;;16.01;78.98;100824.75;4455757;32;20368;-67
2022/05/08 05:17:18;;;;;;;8.45;5.97;;;;;;;16.17;78.33;100831.38;4470006;32;20148;-67
2022/05/08 05:19:46;;;;;;;10.07;5.95;;;;;;;16.37;78.17;100832.59;4470262;32;20096;-67
2022/05/08 05:22:13;;;;;;;8.07;5.75;;;;;;;16.53;77.55;100836.53;4469898;32;20092;-67
2022/05/08 05:24:43;;;;;;;10.32;5.85;;;;;;;16.56;77.36;100836.47;4469986;32;20072;-67
2022/05/08 05:27:11;;;;;;;8.77;5.60;;;;;;;16.73;76.20;100838.62;4469869;32;20400;-67
2022/05/08 05:29:38;;;;;;;7.80;5.93;;;;;;;16.94;75.99;100831.81;4455392;32;20100;-67
2022/05/08 05:32:05;;;;;;;10.52;6.25;;;;;;;17.13;75.23;100835.62;4469857;32;20512;-67
2022/05/08 05:34:33;;;;;;;8.70;5.62;;;;;;;17.23;74.36;100835.34;4469844;32;20136;-67
2022/05/08 05:37:00;;;;;;;6.82;5.90;;;;;;;17.39;73.00;100837.47;4469876;32;20101;-67
2022/05/08 05:39:27;;;;;;;6.03;5.43;;;;;;;17.33;74.17;100834.13;4470178;32;20100;-67
2022/05/08 05:41:54;;;;;;;5.50;5.00;;;;;;;17.43;73.87;100836.44;4469757;32;20084;-67
2022/05/08 05:44:21;;;;;;;8.65;5.68;;;;;;;17.63;72.63;100837.56;4469640;32;20112;-67
2022/05/08 05:49:34;;;;;;;5.75;5.20;;;;;;;17.95;71.26;100839.16;4469976;32;20084;-67
2022/05/08 05:52:03;;;;;;;5.37;4.85;;;;;;;18.00;70.83;100837.19;4469788;32;20106;-67
2022/05/08 05:54:30;;;;;;;7.72;4.62;;;;;;;18.14;69.13;100842.03;4469768;32;20104;-67
2022/05/08 05:56:57;;;;;;;5.05;4.55;;;;;;;18.31;66.92;100842.31;4469440;32;20164;-67
2022/05/08 05:59:25;;;;;;;7.75;4.85;;;;;;;18.42;66.20;100844.56;4469541;32;20147;-67
2022/05/08 06:02:06;;;;;;;11.55;4.60;;;;;;;18.59;66.45;100843.97;4469610;32;20152;-67
2022/05/08 06:04:33;;;;;;;5.70;5.20;;;;;;;18.73;63.73;100847.00;4469512;32;20563;-67
2022/05/08 06:07:00;;;;;;;6.68;5.20;;;;;;;18.81;62.37;100852.91;4469546;32;20108;-67
2022/05/08 06:09:27;;;;;;;6.68;5.10;;;;;;;18.94;62.31;100855.09;4469590;32;20096;-67
2022/05/08 06:11:55;;;;;;;6.22;4.85;;;;;;;19.11;61.76;100845.47;4469478;32;20186;-67
2022/05/08 06:14:22;;;;;;;6.65;5.90;;;;;;;19.21;62.19;100856.69;4469394;32;20100;-67
2022/05/08 06:16:49;;;;;;;8.18;5.40;;;;;;;19.19;60.01;100847.88;4455009;32;20128;-67
2022/05/08 06:19:16;;;;;;;6.65;4.75;;;;;;;19.19;59.67;100855.88;4469478;32;20233;-67
2022/05/08 06:21:50;;;;;;;7.37;4.90;;;;;;;19.26;59.35;100848.50;4469151;32;20096;-67
2022/05/08 06:24:17;;;;;;;7.18;5.35;;;;;;;19.38;59.42;100853.31;4469482;32;20504;-67
2022/05/08 06:26:44;;;;;;;5.25;4.68;;;;;;;19.53;57.27;100854.50;4469291;32;20152;-67
2022/05/08 06:29:11;;;;;;;5.80;5.15;;;;;;;19.50;57.98;100858.16;4469194;32;20561;-67
2022/05/08 06:31:39;;;;;;;6.75;5.05;;;;;;;19.65;57.76;100861.19;4469258;32;20413;-67
2022/05/08 06:34:08;;;;;;;16.75;5.40;;;;;;;19.53;57.81;100858.03;4469310;32;20154;-67
2022/05/08 06:36:35;;;;;;;7.68;4.95;;;;;;;19.45;57.51;100857.50;4469108;32;20440;-67
2022/05/08 06:39:02;;;;;;;9.73;4.82;;;;;;;19.55;58.00;100866.88;4469122;32;20603;-67
2022/05/08 06:41:30;;;;;;;7.25;5.05;;;;;;;19.50;57.81;100855.47;4469037;32;20107;-67
2022/05/08 06:43:57;;;;;;;6.78;5.00;;;;;;;19.68;58.79;100853.00;4468920;32;20161;-67
2022/05/08 06:46:24;;;;;;;10.90;4.60;;;;;;;19.81;57.87;100862.25;4468890;32;20143;-67
2022/05/08 06:48:51;;;;;;;5.85;5.30;;;;;;;19.81;57.63;100857.78;4468857;32;20104;-67
2022/05/08 06:51:18;;;;;;;5.85;5.25;;;;;;;20.01;56.69;100853.38;4468949;32;20425;-67
2022/05/08 06:53:46;;;;;;;6.28;5.60;;;;;;;20.10;57.16;100858.31;4468953;32;20560;-67
2022/05/08 06:56:15;;;;;;;5.85;4.85;;;;;;;20.18;56.00;100860.69;4468741;32;20172;-67
2022/05/08 07:01:35;;;;;;;9.82;4.80;;;;;;;20.29;56.76;100861.06;4470520;32;20072;-67
2022/05/08 07:04:03;;;;;;;6.25;4.90;;;;;;;20.43;55.99;100861.31;4470783;32;20104;-67
2022/05/08 07:06:30;;;;;;;8.05;4.55;;;;;;;20.53;55.06;100862.69;4470765;32;20093;-67
2022/05/08 07:09:09;;;;;;;5.03;4.40;;;;;;;20.56;54.90;100866.12;4471051;32;20092;-67
2022/05/08 07:11:41;;;;;;;5.03;4.50;;;;;;;20.75;53.95;100861.69;4470812;32;20081;-67
2022/05/08 07:14:11;;;;;;;5.43;4.65;;;;;;;20.69;53.28;100867.31;4470947;32;20122;-67
2022/05/08 07:16:38;;;;;;;6.65;4.97;;;;;;;20.75;53.89;100861.69;4470771;32;20093;-67
2022/05/08 07:19:06;;;;;;;11.32;4.70;;;;;;;20.92;53.51;100868.94;4456180;32;20458;-67
2022/05/08 07:21:33;;;;;;;5.78;5.30;;;;;;;21.08;52.64;100856.53;4470827;32;20530;-67
2022/05/08 07:24:01;;;;;;;6.12;4.90;;;;;;;21.27;52.37;100861.00;4470750;32;20184;-67
2022/05/08 07:26:28;;;;;;;5.47;4.35;;;;;;;21.34;52.64;100866.00;4470950;32;20100;-67
2022/05/08 07:28:55;;;;;;;6.80;4.97;;;;;;;21.48;52.31;100868.00;4470598;32;20104;-67
2022/05/08 07:31:24;;;;;;;6.75;5.12;;;;;;;21.64;51.86;100863.63;4470776;32;20081;-67
2022/05/08 07:36:12;;;;;;;9.15;4.47;;;;;;;21.96;51.06;100864.69;4470733;32;20096;-67
2022/05/08 07:36:40;;;;;;;8.63;4.50;;;;;;;22.02;51.86;100862.62;4470661;32;20587;-67
2022/05/08 07:39:07;;;;;;;4.85;4.45;;;;;;;22.18;49.81;100860.91;4470675;32;20105;-67
2022/05/08 07:41:34;;;;;;;5.12;4.47;;;;;;;22.23;50.05;100866.91;4456255;32;20128;-67
2022/05/08 07:44:02;;;;;;;8.50;5.22;;;;;;;22.34;49.61;100867.22;4470816;32;20406;-67
2022/05/08 07:46:29;;;;;;;6.87;5.10;;;;;;;22.63;49.56;100864.78;4470578;32;20085;-67
2022/05/08 07:48:56;;;;;;;7.20;4.82;;;;;;;22.80;48.92;100867.41;4470873;32;20432;-67
2022/05/08 07:51:24;;;;;;;9.77;5.03;;;;;;;22.84;48.54;100865.41;4470791;32;20119;-67
2022/05/08 07:53:51;;;;;;;5.55;5.05;;;;;;;22.86;48.00;100872.44;4470603;32;20083;-67
2022/05/08 07:56:18;;;;;;;6.72;4.40;;;;;;;22.86;48.29;100868.88;4470525;32;20168;-67
2022/05/08 07:58:46;;;;;;;8.00;5.30;;;;;;;23.13;48.25;100869.19;4470430;32;20176;-68
2022/05/08 08:01:13;;;;;;;7.97;4.95;;;;;;;23.32;47.16;100869.00;4470450;32;20096;-67
2022/05/08 08:03:41;;;;;;;7.72;4.90;;;;;;;23.53;46.54;100872.28;4470514;32;20164;-67
2022/05/08 08:06:08;;;;;;;6.62;4.80;;;;;;;23.68;45.95;100870.56;4470564;32;20825;-67
2022/05/08 08:08:38;;;;;;;6.05;4.62;;;;;;;23.70;45.03;100871.31;4470164;32;20100;-67
2022/05/08 08:11:06;;;;;;;5.45;4.65;;;;;;;23.78;45.79;100867.25;4470494;32;20145;-67
2022/05/08 08:13:35;;;;;;;19.35;4.95;;;;;;;23.74;45.44;100868.34;4470436;32;20149;-67
2022/05/08 08:16:06;;;;;;;6.87;4.45;;;;;;;23.65;46.59;100871.56;4470366;32;20096;-67
2022/05/08 08:18:35;;;;;;;4.72;3.92;;;;;;;23.86;44.91;100874.84;4470405;32;20119;-67
2022/05/08 08:21:09;;;;;;;7.60;4.50;;;;;;;24.04;44.22;100889.03;4470406;32;20085;-67
2022/05/08 08:23:37;;;;;;;7.18;4.20;;;;;;;23.69;44.30;100883.06;4470366;32;20122;-67
2022/05/08 08:26:04;;;;;;;6.00;4.50;;;;;;;23.69;44.07;100878.53;4470207;32;20514;-67
2022/05/08 08:28:31;;;;;;;6.05;4.32;;;;;;;23.37;43.86;100883.06;4470269;32;20097;-67
2022/05/08 08:30:59;;;;;;;12.90;4.85;;;;;;;23.17;45.73;100884.19;4470373;32;20088;-67
2022/05/08 08:33:26;;;;;;;6.03;4.55;;;;;;;23.31;45.88;100884.28;4470429;32;20079;-67
2022/05/08 08:35:53;;;;;;;8.50;4.93;;;;;;;23.39;45.84;100886.50;4470346;32;20096;-67
2022/05/08 08:38:21;;;;;;;6.47;4.10;;;;;;;23.37;45.86;100886.62;4470244;32;20528;-67
2022/05/08 08:40:49;;;;;;;7.03;4.57;;;;;;;23.65;45.00;100893.09;4470384;32;20093;-67
2022/05/08 08:43:18;;;;;;;5.85;4.65;;;;;;;23.67;44.80;100893.88;4470404;32;20092;-67
2022/05/08 08:48:34;;;;;;;8.02;5.15;;;;;;;23.92;44.86;100892.44;4470442;32;20104;-67
2022/05/08 08:51:02;;;;;;;4.95;4.37;;;;;;;24.14;44.79;100892.91;4470259;32;20114;-67
2022/05/08 08:53:30;;;;;;;5.85;5.07;;;;;;;24.29;43.82;100891.09;4470130;32;20545;-67
2022/05/08 08:55:59;;;;;;;8.07;4.43;;;;;;;24.31;43.48;100886.47;4470134;32;20096;-67
2022/05/08 08:58:27;;;;;;;4.87;4.07;;;;;;;24.46;43.02;100893.66;4470076;32;20538;-67
2022/05/08 09:00:55;;;;;;;55.85;7.30;;;;;;;24.61;43.56;100894.53;4470140;32;20152;-67
2022/05/08 09:03:29;;;;;;;5.03;4.60;;;;;;;24.66;41.73;100889.72;4469985;32;20369;-67
2022/05/08 09:05:59;;;;;;;6.00;4.40;;;;;;;24.93;41.41;100883.56;4470081;32;20145;-67
2022/05/08 09:08:31;;;;;;;20.60;5.12;;;;;;;25.13;40.40;100885.88;4470087;32;20091;-67
2022/05/08 09:11:00;;;;;;;7.10;4.30;;;;;;;25.02;40.07;100894.63;4470128;32;20500;-68
2022/05/08 09:13:29;;;;;;;6.22;4.72;;;;;;;25.36;40.52;100887.06;4470110;32;20092;-67
2022/05/08 09:16:14;;;;;;;4.87;4.50;;;;;;;25.59;39.38;100882.00;4469933;32;20432;-67
2022/05/08 09:18:44;;;;;;;12.37;4.68;;;;;;;25.30;38.64;100891.97;4470004;32;20442;-67
2022/05/08 09:24:12;;;;;;;9.32;4.25;;;;;;;25.28;40.99;100882.16;4469950;32;20503;-67
2022/05/08 09:26:40;;;;;;;4.87;4.35;;;;;;;25.62;39.29;100887.16;4470013;32;20462;-67
2022/05/08 09:29:07;;;;;;;4.50;4.10;;;;;;;25.84;39.14;100886.62;4469949;32;20104;-67
2022/05/08 09:31:43;;;;;;;6.80;4.68;;;;;;;26.15;38.33;100886.28;4470145;32;20190;-67
2022/05/08 09:34:14;;;;;;;5.07;4.20;;;;;;;26.39;38.61;100878.25;4469881;32;20084;-68
2022/05/08 09:36:42;;;;;;;6.82;4.12;;;;;;;26.39;38.10;100878.25;4469975;32;20088;-67
2022/05/08 09:39:09;;;;;;;6.60;4.45;;;;;;;26.68;36.39;100873.56;4469881;32;20104;-68
2022/05/08 09:41:39;;;;;;;14.18;5.07;;;;;;;26.07;39.05;100871.53;4469707;32;20091;-68
2022/05/08 09:44:09;;;;;;;6.78;4.78;;;;;;;26.13;40.21;100874.69;4469869;32;20117;-67
2022/05/08 09:46:37;;;;;;;16.48;4.55;;;;;;;25.44;42.29;100873.94;4469818;32;20508;-67
2022/05/08 09:49:07;;;;;;;9.18;5.22;;;;;;;25.21;41.29;100874.59;4469931;32;20104;-67
2022/05/08 09:51:35;;;;;;;10.20;5.32;;;;;;;25.47;41.92;100873.72;4469815;32;20393;-67
2022/05/08 09:54:02;;;;;;;7.72;5.25;;;;;;;25.70;42.74;100868.63;4469661;32;20178;-67
2022/05/08 09:56:31;;;;;;;6.22;5.62;;;;;;;24.84;44.25;100865.25;4469819;32;20123;-67
2022/05/08 09:58:59;;;;;;;12.75;5.75;;;;;;;24.83;43.37;100868.94;4469716;32;20135;-67
2022/05/08 10:01:26;;;;;;;6.12;4.80;;;;;;;24.70;45.14;100867.03;4469875;32;20083;-67
2022/05/08 10:03:55;;;;;;;6.85;5.32;;;;;;;24.97;43.52;100869.78;4469713;32;20084;-67
2022/05/08 10:06:24;;;;;;;6.50;5.32;;;;;;;25.11;42.80;100873.44;4469587;32;20089;-67
2022/05/08 10:13:53;;;;;;;8.68;5.32;;;;;;;25.07;42.79;100864.66;4469558;32;20461;-67
2022/05/08 10:14:27;;;;;;;8.90;5.55;;;;;;;25.66;41.39;100861.72;4469541;32;20084;-67
2022/05/08 10:17:03;;;;;;;6.68;5.37;;;;;;;25.52;41.65;100858.09;4469511;32;20163;-67
2022/05/08 10:19:30;;;;;;;9.45;5.50;;;;;;;25.45;41.41;100859.47;4469719;32;20156;-67
2022/05/08 10:21:59;;;;;;;7.75;5.50;;;;;;;25.88;40.90;100855.75;4469251;32;20175;-67
2022/05/08 10:24:38;;;;;;;5.93;5.37;;;;;;;25.69;41.18;100856.97;4469361;32;20174;-67
2022/05/08 10:27:18;;;;;;;6.45;5.87;;;;;;;25.51;41.21;100855.50;4469530;32;20085;-67
2022/05/08 10:30:08;;;;;;;7.80;5.72;;;;;;;25.52;40.69;100851.84;4469317;32;20092;-67
2022/05/08 10:32:45;;;;;;;7.15;5.20;;;;;;;25.20;41.82;100848.59;4470315;32;20160;-67
2022/05/08 10:35:13;;;;;;;10.85;5.85;;;;;;;24.93;43.13;100843.13;4471204;32;20607;-67
2022/05/08 10:37:46;;;;;;;12.32;5.85;;;;;;;25.04;42.83;100843.28;4456701;32;20104;-67
2022/05/08 10:40:21;;;;;;;8.93;5.85;;;;;;;25.45;41.26;100842.44;4471118;32;20100;-67
2022/05/08 10:43:01;;;;;;;8.60;5.18;;;;;;;25.42;41.61;100846.19;4471215;32;20122;-68
2022/05/08 10:45:31;;;;;;;5.62;5.12;;;;;;;25.79;40.50;100849.12;4471346;32;20145;-67
2022/05/08 10:48:03;;;;;;;8.73;5.47;;;;;;;25.56;40.73;100842.56;4471330;32;20173;-67
2022/05/08 10:50:30;;;;;;;8.73;5.68;;;;;;;25.52;40.70;100849.16;4471156;32;20466;-67
2022/05/08 10:52:58;;;;;;;10.68;5.32;;;;;;;25.09;41.28;100846.56;4471240;32;20771;-67
2022/05/08 10:55:27;;;;;;;8.13;5.40;;;;;;;25.28;41.66;100844.41;4471207;32;20084;-67
2022/05/08 10:57:55;;;;;;;14.13;5.43;;;;;;;25.63;40.47;100846.59;4470909;32;20355;-67
2022/05/08 11:00:24;;;;;;;9.20;5.03;;;;;;;25.65;39.62;100841.94;4470939;32;20381;-67
2022/05/08 11:02:56;;;;;;;9.25;5.93;;;;;;;25.55;40.22;100838.16;4471141;32;20112;-67
2022/05/08 11:05:36;;;;;;;6.50;5.45;;;;;;;25.63;40.71;100841.19;4470968;32;20088;-67
2022/05/08 11:08:04;;;;;;;12.30;5.62;;;;;;;25.51;40.74;100836.59;4471155;32;20808;-67
2022/05/08 11:10:34;;;;;;;7.80;5.20;;;;;;;25.98;39.54;100835.25;4470927;32;20528;-67
2022/05/08 11:13:11;;;;;;;6.87;5.15;;;;;;;26.06;39.91;100835.56;4471260;32;20077;-68
2022/05/08 11:15:46;;;;;;;10.38;5.12;;;;;;;26.92;38.29;100832.16;4470912;32;20159;-67
2022/05/08 11:18:17;;;;;;;6.20;4.97;;;;;;;27.38;37.94;100828.78;4470888;32;20123;-67
2022/05/08 11:20:45;;;;;;;4.93;4.53;;;;;;;28.13;36.73;100825.78;4470752;32;20258;-67
2022/05/08 11:23:14;;;;;;;14.35;4.97;;;;;;;28.47;35.67;100823.13;4471062;32;20076;-67
2022/05/08 11:25:54;;;;;;;5.95;5.30;;;;;;;28.56;35.49;100816.97;4470879;32;20112;-67
2022/05/08 11:28:26;;;;;;;10.02;4.50;;;;;;;28.53;36.19;100814.50;4470815;32;20088;-68
2022/05/08 11:30:54;;;;;;;6.95;5.20;;;;;;;29.08;34.22;100811.84;4470840;32;20096;-67
2022/05/08 11:36:30;;;;;;;12.37;5.20;;;;;;;29.03;35.03;100807.69;4470977;32;20092;-68
2022/05/08 11:39:05;;;;;;;12.82;5.07;;;;;;;29.22;34.16;100808.84;4470792;32;20162;-67
2022/05/08 11:41:32;;;;;;;5.10;4.70;;;;;;;28.02;34.71;100812.19;4470811;32;20455;-67
2022/05/08 11:44:02;;;;;;;5.55;5.05;;;;;;;27.50;36.38;100811.62;4470143;32;20089;-67
2022/05/08 11:46:37;;;;;;;6.22;4.75;;;;;;;27.34;35.88;100811.06;4470649;32;20122;-67
2022/05/08 11:49:13;;;;;;;5.20;4.60;;;;;;;28.66;34.98;100801.69;4470858;32;20077;-67
2022/05/08 11:51:42;;;;;;;;;;;;;;;29.11;33.32;100806.19;4471072;32;20088;-68
2022/05/08 11:54:24;;;;;;;6.28;4.72;;;;;;;29.71;33.05;100810.16;4470701;32;20066;-67
2022/05/08 11:57:12;;;;;;;6.07;4.70;;;;;;;29.31;33.65;100802.66;4470733;32;20084;-68
2022/05/08 11:59:40;;;;;;;5.35;4.47;;;;;;;29.85;32.94;100807.13;4470714;32;20105;-68
2022/05/08 12:02:08;;;;;;;6.82;5.18;;;;;;;30.32;32.71;100804.88;4470568;32;20155;-68
2022/05/08 12:04:36;;;;;;;7.75;5.18;;;;;;;29.80;31.91;100805.81;4470514;32;20432;-67